Tannersville, New York
Current Conditions -  °F | °C
As of 7:53 PM on Wednesday 22 Oct 2014 (Local Time) from KPOU Reporting Station
Light Rain Light Rain  
Wind Chill: 50°   Ceiling: 1300
Heat Index: 50°   Visibility: 4mi
Dew Point: 47°   Wind: 16mph
Humidity: 89%   Direction: 10°N
Pressure: 29.87"   Gusts: 28mph
Location:  42.2°N, 74.13°W
Report Text: KPOU 222353Z 01014G24KT 4SM -RA BR OVC013 10/08 A2987 RMK AO2 RAB02 SLP112 P0000 60011 T01000083 10117 20100 58011
Loading
Personal Weather Stations






























Interactive Weather Map
Tropical Storm Tracking
New forecast layout! Learn more

10-Day Weather Forecast

Advertisements
Track Severe Weather on mobile